sensor_id;sensor_type;location;lat;lon;timestamp;temperature;humidity
33328;DHT22;19692;52.998;9.116;2024-02-26T00:01:43;1.10;99.90
33328;DHT22;19692;52.998;9.116;2024-02-26T00:04:12;1.10;99.90
33328;DHT22;19692;52.998;9.116;2024-02-26T00:06:38;1.00;99.90
33328;DHT22;19692;52.998;9.116;2024-02-26T00:09:07;1.00;99.90
33328;DHT22;19692;52.998;9.116;2024-02-26T00:11:33;1.00;99.90
33328;DHT22;19692;52.998;9.116;2024-02-26T00:14:00;0.90;99.90
33328;DHT22;19692;52.998;9.116;2024-02-26T00:16:26;0.90;99.90
33328;DHT22;19692;52.998;9.116;2024-02-26T00:18:51;0.90;99.90
33328;DHT22;19692;52.998;9.116;2024-02-26T00:21:17;0.80;99.90
33328;DHT22;19692;52.998;9.116;2024-02-26T00:23:43;0.80;99.90
33328;DHT22;19692;52.998;9.116;2024-02-26T00:26:09;0.80;99.90
33328;DHT22;19692;52.998;9.116;2024-02-26T00:28:36;0.80;99.90
33328;DHT22;19692;52.998;9.116;2024-02-26T00:31:02;0.70;99.90
33328;DHT22;19692;52.998;9.116;2024-02-26T00:33:28;0.70;99.90
33328;DHT22;19692;52.998;9.116;2024-02-26T00:35:54;0.70;99.90
33328;DHT22;19692;52.998;9.116;2024-02-26T00:38:20;0.60;99.90
33328;DHT22;19692;52.998;9.116;2024-02-26T00:40:46;0.60;99.90
33328;DHT22;19692;52.998;9.116;2024-02-26T00:43:12;0.60;99.90
33328;DHT22;19692;52.998;9.116;2024-02-26T00:45:38;0.60;99.90
33328;DHT22;19692;52.998;9.116;2024-02-26T00:48:04;0.60;99.90
33328;DHT22;19692;52.998;9.116;2024-02-26T00:50:31;0.50;99.90
33328;DHT22;19692;52.998;9.116;2024-02-26T00:52:57;0.60;99.90
33328;DHT22;19692;52.998;9.116;2024-02-26T00:55:23;0.60;99.90
33328;DHT22;19692;52.998;9.116;2024-02-26T00:57:49;0.80;99.90
33328;DHT22;19692;52.998;9.116;2024-02-26T01:00:15;0.90;99.90
33328;DHT22;19692;52.998;9.116;2024-02-26T01:02:41;0.90;99.90
33328;DHT22;19692;52.998;9.116;2024-02-26T01:05:07;0.90;99.90
33328;DHT22;19692;52.998;9.116;2024-02-26T01:07:37;0.90;99.90
33328;DHT22;19692;52.998;9.116;2024-02-26T01:10:03;0.80;99.90
33328;DHT22;19692;52.998;9.116;2024-02-26T01:12:29;0.80;99.90
33328;DHT22;19692;52.998;9.116;2024-02-26T01:14:55;0.80;99.90
33328;DHT22;19692;52.998;9.116;2024-02-26T01:17:21;0.70;99.90
33328;DHT22;19692;52.998;9.116;2024-02-26T01:19:47;0.70;99.90
33328;DHT22;19692;52.998;9.116;2024-02-26T01:22:13;0.70;99.90
33328;DHT22;19692;52.998;9.116;2024-02-26T01:24:38;0.60;99.90
33328;DHT22;19692;52.998;9.116;2024-02-26T01:27:04;0.60;99.90
33328;DHT22;19692;52.998;9.116;2024-02-26T01:29:30;0.60;99.90
33328;DHT22;19692;52.998;9.116;2024-02-26T01:31:57;0.60;99.90
33328;DHT22;19692;52.998;9.116;2024-02-26T01:34:22;0.60;99.90
33328;DHT22;19692;52.998;9.116;2024-02-26T01:36:48;0.70;99.90
33328;DHT22;19692;52.998;9.116;2024-02-26T01:39:14;0.80;99.90
33328;DHT22;19692;52.998;9.116;2024-02-26T01:41:40;0.80;99.90
33328;DHT22;19692;52.998;9.116;2024-02-26T01:44:06;0.90;99.90
33328;DHT22;19692;52.998;9.116;2024-02-26T01:46:34;1.10;99.90
33328;DHT22;19692;52.998;9.116;2024-02-26T01:49:01;1.10;99.90
33328;DHT22;19692;52.998;9.116;2024-02-26T01:51:29;1.10;99.90
33328;DHT22;19692;52.998;9.116;2024-02-26T01:53:55;1.20;99.90
33328;DHT22;19692;52.998;9.116;2024-02-26T01:56:21;1.10;99.90
33328;DHT22;19692;52.998;9.116;2024-02-26T01:58:48;1.10;99.90
33328;DHT22;19692;52.998;9.116;2024-02-26T02:01:15;1.10;99.90
33328;DHT22;19692;52.998;9.116;2024-02-26T02:03:42;1.00;99.90
33328;DHT22;19692;52.998;9.116;2024-02-26T02:06:09;1.00;99.90
33328;DHT22;19692;52.998;9.116;2024-02-26T02:08:35;1.00;99.90
33328;DHT22;19692;52.998;9.116;2024-02-26T02:11:01;1.00;99.90
33328;DHT22;19692;52.998;9.116;2024-02-26T02:13:27;1.00;99.90
33328;DHT22;19692;52.998;9.116;2024-02-26T02:15:53;1.00;99.90
33328;DHT22;19692;52.998;9.116;2024-02-26T02:18:19;1.10;99.90
33328;DHT22;19692;52.998;9.116;2024-02-26T02:20:45;1.00;99.90
33328;DHT22;19692;52.998;9.116;2024-02-26T02:23:11;1.00;99.90
33328;DHT22;19692;52.998;9.116;2024-02-26T02:25:36;0.90;99.90
33328;DHT22;19692;52.998;9.116;2024-02-26T02:28:02;0.80;99.90
33328;DHT22;19692;52.998;9.116;2024-02-26T02:30:29;0.70;99.90
33328;DHT22;19692;52.998;9.116;2024-02-26T02:32:57;0.80;99.90
33328;DHT22;19692;52.998;9.116;2024-02-26T02:35:26;0.70;99.90
33328;DHT22;19692;52.998;9.116;2024-02-26T02:37:52;0.70;99.90
33328;DHT22;19692;52.998;9.116;2024-02-26T02:40:18;0.70;99.90
33328;DHT22;19692;52.998;9.116;2024-02-26T02:42:44;0.60;99.90
33328;DHT22;19692;52.998;9.116;2024-02-26T02:45:10;0.60;99.90
33328;DHT22;19692;52.998;9.116;2024-02-26T02:47:36;0.60;99.90
33328;DHT22;19692;52.998;9.116;2024-02-26T02:50:03;0.60;99.90
33328;DHT22;19692;52.998;9.116;2024-02-26T02:52:29;0.60;99.90
33328;DHT22;19692;52.998;9.116;2024-02-26T02:54:55;0.60;99.90
33328;DHT22;19692;52.998;9.116;2024-02-26T02:57:21;0.60;99.90
33328;DHT22;19692;52.998;9.116;2024-02-26T02:59:47;0.60;99.90
33328;DHT22;19692;52.998;9.116;2024-02-26T03:02:12;0.60;99.90
33328;DHT22;19692;52.998;9.116;2024-02-26T03:04:38;0.60;99.90
33328;DHT22;19692;52.998;9.116;2024-02-26T03:07:04;0.60;99.90
33328;DHT22;19692;52.998;9.116;2024-02-26T03:09:30;0.60;99.90
33328;DHT22;19692;52.998;9.116;2024-02-26T03:11:55;0.70;99.90
33328;DHT22;19692;52.998;9.116;2024-02-26T03:14:21;0.70;99.90
33328;DHT22;19692;52.998;9.116;2024-02-26T03:16:47;0.80;99.90
33328;DHT22;19692;52.998;9.116;2024-02-26T03:19:16;0.70;99.90
33328;DHT22;19692;52.998;9.116;2024-02-26T03:21:42;0.60;99.90
33328;DHT22;19692;52.998;9.116;2024-02-26T03:24:09;0.60;99.90
33328;DHT22;19692;52.998;9.116;2024-02-26T03:26:36;0.70;99.90
33328;DHT22;19692;52.998;9.116;2024-02-26T03:29:02;0.80;99.90
33328;DHT22;19692;52.998;9.116;2024-02-26T03:31:28;0.80;99.90
33328;DHT22;19692;52.998;9.116;2024-02-26T03:33:54;0.80;99.90
33328;DHT22;19692;52.998;9.116;2024-02-26T03:36:20;0.80;99.90
33328;DHT22;19692;52.998;9.116;2024-02-26T03:38:47;0.80;99.90
33328;DHT22;19692;52.998;9.116;2024-02-26T03:41:13;0.80;99.90
33328;DHT22;19692;52.998;9.116;2024-02-26T03:43:39;0.90;99.90
33328;DHT22;19692;52.998;9.116;2024-02-26T03:46:09;0.90;99.90
33328;DHT22;19692;52.998;9.116;2024-02-26T03:48:36;0.90;99.90
33328;DHT22;19692;52.998;9.116;2024-02-26T03:51:02;0.80;99.90
33328;DHT22;19692;52.998;9.116;2024-02-26T03:53:28;0.80;99.90
33328;DHT22;19692;52.998;9.116;2024-02-26T03:55:54;0.90;99.90
33328;DHT22;19692;52.998;9.116;2024-02-26T03:58:21;0.80;99.90
33328;DHT22;19692;52.998;9.116;2024-02-26T04:00:47;0.80;99.90
33328;DHT22;19692;52.998;9.116;2024-02-26T04:03:15;0.80;99.90
33328;DHT22;19692;52.998;9.116;2024-02-26T04:05:41;0.80;99.90
33328;DHT22;19692;52.998;9.116;2024-02-26T04:08:07;0.80;99.90
33328;DHT22;19692;52.998;9.116;2024-02-26T04:10:33;0.80;99.90
33328;DHT22;19692;52.998;9.116;2024-02-26T04:13:04;0.80;99.90
33328;DHT22;19692;52.998;9.116;2024-02-26T04:15:31;0.80;99.90
33328;DHT22;19692;52.998;9.116;2024-02-26T04:17:57;0.90;99.90
33328;DHT22;19692;52.998;9.116;2024-02-26T04:20:23;0.90;99.90
33328;DHT22;19692;52.998;9.116;2024-02-26T04:22:49;0.90;99.90
33328;DHT22;19692;52.998;9.116;2024-02-26T04:25:14;1.00;99.90
33328;DHT22;19692;52.998;9.116;2024-02-26T04:27:40;1.00;99.90
33328;DHT22;19692;52.998;9.116;2024-02-26T04:30:07;1.00;99.90
33328;DHT22;19692;52.998;9.116;2024-02-26T04:32:33;1.00;99.90
33328;DHT22;19692;52.998;9.116;2024-02-26T04:35:00;1.00;99.90
33328;DHT22;19692;52.998;9.116;2024-02-26T04:37:27;1.00;99.90
33328;DHT22;19692;52.998;9.116;2024-02-26T04:40:00;1.00;99.90
33328;DHT22;19692;52.998;9.116;2024-02-26T04:42:27;1.00;99.90
33328;DHT22;19692;52.998;9.116;2024-02-26T04:44:54;1.00;99.90
33328;DHT22;19692;52.998;9.116;2024-02-26T04:47:20;1.00;99.90
33328;DHT22;19692;52.998;9.116;2024-02-26T04:49:50;1.10;99.90
33328;DHT22;19692;52.998;9.116;2024-02-26T04:52:17;1.10;99.90
33328;DHT22;19692;52.998;9.116;2024-02-26T04:54:43;1.10;99.90
33328;DHT22;19692;52.998;9.116;2024-02-26T04:57:09;1.10;99.90
33328;DHT22;19692;52.998;9.116;2024-02-26T04:59:35;1.10;99.90
33328;DHT22;19692;52.998;9.116;2024-02-26T05:02:01;1.10;99.90
33328;DHT22;19692;52.998;9.116;2024-02-26T05:04:26;1.10;99.90
33328;DHT22;19692;52.998;9.116;2024-02-26T05:06:52;1.10;99.90
33328;DHT22;19692;52.998;9.116;2024-02-26T05:09:18;1.10;99.90
33328;DHT22;19692;52.998;9.116;2024-02-26T05:11:44;1.10;99.90
33328;DHT22;19692;52.998;9.116;2024-02-26T05:14:10;1.10;99.90
33328;DHT22;19692;52.998;9.116;2024-02-26T05:16:36;1.10;99.90
33328;DHT22;19692;52.998;9.116;2024-02-26T05:19:02;1.10;99.90
33328;DHT22;19692;52.998;9.116;2024-02-26T05:21:28;1.10;99.90
33328;DHT22;19692;52.998;9.116;2024-02-26T05:23:54;1.10;99.90
33328;DHT22;19692;52.998;9.116;2024-02-26T05:26:21;1.10;99.90
33328;DHT22;19692;52.998;9.116;2024-02-26T05:28:47;1.10;99.90
33328;DHT22;19692;52.998;9.116;2024-02-26T05:31:13;1.10;99.90
33328;DHT22;19692;52.998;9.116;2024-02-26T05:33:39;1.10;99.90
33328;DHT22;19692;52.998;9.116;2024-02-26T05:36:05;1.10;99.90
33328;DHT22;19692;52.998;9.116;2024-02-26T05:38:31;1.10;99.90
33328;DHT22;19692;52.998;9.116;2024-02-26T05:40:58;1.10;99.90
33328;DHT22;19692;52.998;9.116;2024-02-26T05:43:25;1.20;99.90
33328;DHT22;19692;52.998;9.116;2024-02-26T05:45:51;1.20;99.90
33328;DHT22;19692;52.998;9.116;2024-02-26T05:48:17;1.20;99.90
33328;DHT22;19692;52.998;9.116;2024-02-26T05:50:44;1.20;99.90
33328;DHT22;19692;52.998;9.116;2024-02-26T05:53:10;1.20;99.90
33328;DHT22;19692;52.998;9.116;2024-02-26T05:55:36;1.20;99.90
33328;DHT22;19692;52.998;9.116;2024-02-26T05:58:03;1.20;99.90
33328;DHT22;19692;52.998;9.116;2024-02-26T06:00:29;1.20;99.90
33328;DHT22;19692;52.998;9.116;2024-02-26T06:02:55;1.20;99.90
33328;DHT22;19692;52.998;9.116;2024-02-26T06:05:20;1.20;99.90
33328;DHT22;19692;52.998;9.116;2024-02-26T06:07:46;1.20;99.90
33328;DHT22;19692;52.998;9.116;2024-02-26T06:10:12;1.20;99.90
33328;DHT22;19692;52.998;9.116;2024-02-26T06:12:39;1.20;99.90
33328;DHT22;19692;52.998;9.116;2024-02-26T06:15:06;1.20;99.90
33328;DHT22;19692;52.998;9.116;2024-02-26T06:17:32;1.20;99.90
33328;DHT22;19692;52.998;9.116;2024-02-26T06:19:59;1.20;99.90
33328;DHT22;19692;52.998;9.116;2024-02-26T06:22:25;1.20;99.90
33328;DHT22;19692;52.998;9.116;2024-02-26T06:24:51;1.20;99.90
33328;DHT22;19692;52.998;9.116;2024-02-26T06:27:17;1.20;99.90
33328;DHT22;19692;52.998;9.116;2024-02-26T06:29:42;1.20;99.90
33328;DHT22;19692;52.998;9.116;2024-02-26T06:32:08;1.20;99.90
33328;DHT22;19692;52.998;9.116;2024-02-26T06:34:34;1.20;99.90
33328;DHT22;19692;52.998;9.116;2024-02-26T06:37:00;1.20;99.90
33328;DHT22;19692;52.998;9.116;2024-02-26T06:39:26;1.30;99.90
33328;DHT22;19692;52.998;9.116;2024-02-26T06:41:51;1.30;99.90
33328;DHT22;19692;52.998;9.116;2024-02-26T06:44:23;1.30;99.90
33328;DHT22;19692;52.998;9.116;2024-02-26T06:46:50;1.30;99.90
33328;DHT22;19692;52.998;9.116;2024-02-26T06:49:15;1.30;99.90
33328;DHT22;19692;52.998;9.116;2024-02-26T06:51:41;1.30;99.90
33328;DHT22;19692;52.998;9.116;2024-02-26T06:54:07;1.40;99.90
33328;DHT22;19692;52.998;9.116;2024-02-26T06:56:33;1.40;99.90
33328;DHT22;19692;52.998;9.116;2024-02-26T06:59:05;1.40;99.90
33328;DHT22;19692;52.998;9.116;2024-02-26T07:01:30;1.50;99.90
33328;DHT22;19692;52.998;9.116;2024-02-26T07:03:56;1.50;99.90
33328;DHT22;19692;52.998;9.116;2024-02-26T07:06:22;1.50;99.90
33328;DHT22;19692;52.998;9.116;2024-02-26T07:08:47;1.60;99.90
33328;DHT22;19692;52.998;9.116;2024-02-26T07:11:13;1.70;99.90
33328;DHT22;19692;52.998;9.116;2024-02-26T07:13:39;1.70;99.90
33328;DHT22;19692;52.998;9.116;2024-02-26T07:16:05;1.70;99.90
33328;DHT22;19692;52.998;9.116;2024-02-26T07:18:31;1.80;99.90
33328;DHT22;19692;52.998;9.116;2024-02-26T07:20:57;1.80;99.90
33328;DHT22;19692;52.998;9.116;2024-02-26T07:23:22;1.90;99.90
33328;DHT22;19692;52.998;9.116;2024-02-26T07:25:48;1.90;99.90
33328;DHT22;19692;52.998;9.116;2024-02-26T07:28:18;1.90;99.90
33328;DHT22;19692;52.998;9.116;2024-02-26T07:30:44;2.00;99.90
33328;DHT22;19692;52.998;9.116;2024-02-26T07:33:09;2.00;99.90
33328;DHT22;19692;52.998;9.116;2024-02-26T07:35:35;2.00;99.90
33328;DHT22;19692;52.998;9.116;2024-02-26T07:38:02;2.10;99.90
33328;DHT22;19692;52.998;9.116;2024-02-26T07:40:27;2.10;99.90
33328;DHT22;19692;52.998;9.116;2024-02-26T07:42:54;2.10;99.90
33328;DHT22;19692;52.998;9.116;2024-02-26T07:45:19;2.20;99.90
33328;DHT22;19692;52.998;9.116;2024-02-26T07:47:47;2.20;99.90
33328;DHT22;19692;52.998;9.116;2024-02-26T07:50:13;2.20;99.90
33328;DHT22;19692;52.998;9.116;2024-02-26T07:52:39;2.30;99.90
33328;DHT22;19692;52.998;9.116;2024-02-26T07:55:05;2.30;99.90
33328;DHT22;19692;52.998;9.116;2024-02-26T07:57:35;2.30;99.90
33328;DHT22;19692;52.998;9.116;2024-02-26T08:00:02;2.30;99.90
33328;DHT22;19692;52.998;9.116;2024-02-26T08:02:28;2.40;99.90
33328;DHT22;19692;52.998;9.116;2024-02-26T08:04:54;2.40;99.90
33328;DHT22;19692;52.998;9.116;2024-02-26T08:07:20;2.40;99.90
33328;DHT22;19692;52.998;9.116;2024-02-26T08:09:46;2.40;99.90
33328;DHT22;19692;52.998;9.116;2024-02-26T08:12:13;2.50;99.90
33328;DHT22;19692;52.998;9.116;2024-02-26T08:14:39;2.50;99.90
33328;DHT22;19692;52.998;9.116;2024-02-26T08:17:05;2.60;99.90
33328;DHT22;19692;52.998;9.116;2024-02-26T08:19:31;2.60;99.90
33328;DHT22;19692;52.998;9.116;2024-02-26T08:21:56;2.60;99.90
33328;DHT22;19692;52.998;9.116;2024-02-26T08:24:23;2.70;99.90
33328;DHT22;19692;52.998;9.116;2024-02-26T08:26:49;2.70;99.90
33328;DHT22;19692;52.998;9.116;2024-02-26T08:29:14;2.80;99.90
33328;DHT22;19692;52.998;9.116;2024-02-26T08:31:40;2.80;99.90
33328;DHT22;19692;52.998;9.116;2024-02-26T08:34:06;2.80;99.90
33328;DHT22;19692;52.998;9.116;2024-02-26T08:36:33;2.90;99.90
33328;DHT22;19692;52.998;9.116;2024-02-26T08:39:00;3.00;99.90
33328;DHT22;19692;52.998;9.116;2024-02-26T08:41:25;3.10;99.90
33328;DHT22;19692;52.998;9.116;2024-02-26T08:43:51;3.10;99.90
33328;DHT22;19692;52.998;9.116;2024-02-26T08:46:17;3.10;99.90
33328;DHT22;19692;52.998;9.116;2024-02-26T08:48:43;3.20;99.90
33328;DHT22;19692;52.998;9.116;2024-02-26T08:51:09;3.30;99.90
33328;DHT22;19692;52.998;9.116;2024-02-26T08:53:38;3.40;99.90
33328;DHT22;19692;52.998;9.116;2024-02-26T08:56:04;3.40;99.90
33328;DHT22;19692;52.998;9.116;2024-02-26T08:58:31;3.50;99.90
33328;DHT22;19692;52.998;9.116;2024-02-26T09:00:56;3.50;99.90
33328;DHT22;19692;52.998;9.116;2024-02-26T09:03:23;3.60;99.90
33328;DHT22;19692;52.998;9.116;2024-02-26T09:05:49;3.70;99.90
33328;DHT22;19692;52.998;9.116;2024-02-26T09:08:15;3.70;99.90
33328;DHT22;19692;52.998;9.116;2024-02-26T09:10:41;3.80;99.90
33328;DHT22;19692;52.998;9.116;2024-02-26T09:13:07;3.90;99.90
33328;DHT22;19692;52.998;9.116;2024-02-26T09:15:33;3.80;99.90
33328;DHT22;19692;52.998;9.116;2024-02-26T09:17:59;3.90;99.90
33328;DHT22;19692;52.998;9.116;2024-02-26T09:20:25;4.00;99.90
33328;DHT22;19692;52.998;9.116;2024-02-26T09:22:50;4.10;99.90
33328;DHT22;19692;52.998;9.116;2024-02-26T09:25:19;4.10;99.90
33328;DHT22;19692;52.998;9.116;2024-02-26T09:27:46;4.30;99.90
33328;DHT22;19692;52.998;9.116;2024-02-26T09:30:12;4.30;99.90
33328;DHT22;19692;52.998;9.116;2024-02-26T09:32:39;4.40;99.90
33328;DHT22;19692;52.998;9.116;2024-02-26T09:35:06;4.50;99.90
33328;DHT22;19692;52.998;9.116;2024-02-26T09:37:32;4.60;99.90
33328;DHT22;19692;52.998;9.116;2024-02-26T09:39:59;4.70;99.90
33328;DHT22;19692;52.998;9.116;2024-02-26T09:42:26;4.80;99.90
33328;DHT22;19692;52.998;9.116;2024-02-26T09:44:54;4.80;99.90
33328;DHT22;19692;52.998;9.116;2024-02-26T09:47:23;4.80;99.90
33328;DHT22;19692;52.998;9.116;2024-02-26T09:49:53;5.00;99.90
33328;DHT22;19692;52.998;9.116;2024-02-26T09:52:19;4.90;99.90
33328;DHT22;19692;52.998;9.116;2024-02-26T09:54:48;5.00;99.90
33328;DHT22;19692;52.998;9.116;2024-02-26T09:57:15;5.10;99.90
33328;DHT22;19692;52.998;9.116;2024-02-26T09:59:43;5.10;99.90
33328;DHT22;19692;52.998;9.116;2024-02-26T10:02:11;5.30;99.90
33328;DHT22;19692;52.998;9.116;2024-02-26T10:04:40;5.50;99.90
33328;DHT22;19692;52.998;9.116;2024-02-26T10:07:10;5.50;99.90
33328;DHT22;19692;52.998;9.116;2024-02-26T10:09:37;5.60;99.90
33328;DHT22;19692;52.998;9.116;2024-02-26T10:12:04;5.70;99.90
33328;DHT22;19692;52.998;9.116;2024-02-26T10:14:31;5.70;99.90
33328;DHT22;19692;52.998;9.116;2024-02-26T10:16:57;5.80;99.90
33328;DHT22;19692;52.998;9.116;2024-02-26T10:19:29;5.60;99.90
33328;DHT22;19692;52.998;9.116;2024-02-26T10:22:00;5.70;99.90
33328;DHT22;19692;52.998;9.116;2024-02-26T10:24:27;5.70;99.90
33328;DHT22;19692;52.998;9.116;2024-02-26T10:26:57;5.70;99.90
33328;DHT22;19692;52.998;9.116;2024-02-26T10:29:24;5.60;99.90
33328;DHT22;19692;52.998;9.116;2024-02-26T10:31:51;5.80;99.90
33328;DHT22;19692;52.998;9.116;2024-02-26T10:34:18;5.80;99.90
33328;DHT22;19692;52.998;9.116;2024-02-26T10:36:44;5.90;99.90
33328;DHT22;19692;52.998;9.116;2024-02-26T10:39:13;6.00;99.90
33328;DHT22;19692;52.998;9.116;2024-02-26T10:41:43;6.00;99.90
33328;DHT22;19692;52.998;9.116;2024-02-26T10:44:11;6.00;99.90
33328;DHT22;19692;52.998;9.116;2024-02-26T10:46:39;6.10;99.90
33328;DHT22;19692;52.998;9.116;2024-02-26T10:49:07;6.30;99.90
33328;DHT22;19692;52.998;9.116;2024-02-26T10:51:44;6.40;99.90
33328;DHT22;19692;52.998;9.116;2024-02-26T10:54:15;6.40;99.90
33328;DHT22;19692;52.998;9.116;2024-02-26T10:56:42;6.50;99.90
33328;DHT22;19692;52.998;9.116;2024-02-26T10:59:09;6.50;99.90
33328;DHT22;19692;52.998;9.116;2024-02-26T11:01:39;6.50;99.90
33328;DHT22;19692;52.998;9.116;2024-02-26T11:04:06;6.50;99.90
33328;DHT22;19692;52.998;9.116;2024-02-26T11:06:34;6.70;99.90
33328;DHT22;19692;52.998;9.116;2024-02-26T11:09:01;6.80;99.90
33328;DHT22;19692;52.998;9.116;2024-02-26T11:11:30;6.90;99.90
33328;DHT22;19692;52.998;9.116;2024-02-26T11:13:57;6.90;99.90
33328;DHT22;19692;52.998;9.116;2024-02-26T11:16:26;7.00;99.90
33328;DHT22;19692;52.998;9.116;2024-02-26T11:18:53;6.90;99.90
33328;DHT22;19692;52.998;9.116;2024-02-26T11:21:21;7.00;99.90
33328;DHT22;19692;52.998;9.116;2024-02-26T11:23:53;7.00;99.90
33328;DHT22;19692;52.998;9.116;2024-02-26T11:26:20;7.00;99.90
33328;DHT22;19692;52.998;9.116;2024-02-26T11:28:48;7.10;99.90
33328;DHT22;19692;52.998;9.116;2024-02-26T11:31:14;7.20;99.90
33328;DHT22;19692;52.998;9.116;2024-02-26T11:33:41;7.20;99.90
33328;DHT22;19692;52.998;9.116;2024-02-26T11:36:10;7.30;99.90
33328;DHT22;19692;52.998;9.116;2024-02-26T11:38:37;7.20;99.90
33328;DHT22;19692;52.998;9.116;2024-02-26T11:41:04;7.30;99.90
33328;DHT22;19692;52.998;9.116;2024-02-26T11:43:50;7.40;99.90
33328;DHT22;19692;52.998;9.116;2024-02-26T11:49:00;7.50;99.90
33328;DHT22;19692;52.998;9.116;2024-02-26T11:51:51;7.70;99.90
33328;DHT22;19692;52.998;9.116;2024-02-26T11:57:37;7.70;99.90
33328;DHT22;19692;52.998;9.116;2024-02-26T12:02:49;7.80;99.90
33328;DHT22;19692;52.998;9.116;2024-02-26T12:05:23;7.80;99.90
33328;DHT22;19692;52.998;9.116;2024-02-26T12:08:03;7.90;99.90
33328;DHT22;19692;52.998;9.116;2024-02-26T12:10:39;8.00;99.90
33328;DHT22;19692;52.998;9.116;2024-02-26T12:13:12;8.10;99.90
33328;DHT22;19692;52.998;9.116;2024-02-26T12:15:42;8.20;99.90
33328;DHT22;19692;52.998;9.116;2024-02-26T12:18:10;8.20;99.90
33328;DHT22;19692;52.998;9.116;2024-02-26T12:20:41;8.20;99.90
33328;DHT22;19692;52.998;9.116;2024-02-26T12:23:14;8.30;99.90
33328;DHT22;19692;52.998;9.116;2024-02-26T12:25:40;8.40;99.90
33328;DHT22;19692;52.998;9.116;2024-02-26T12:28:07;8.60;99.90
33328;DHT22;19692;52.998;9.116;2024-02-26T12:30:33;8.70;99.90
33328;DHT22;19692;52.998;9.116;2024-02-26T12:33:00;8.60;99.90
33328;DHT22;19692;52.998;9.116;2024-02-26T12:35:27;8.60;99.90
33328;DHT22;19692;52.998;9.116;2024-02-26T12:37:54;8.70;99.90
33328;DHT22;19692;52.998;9.116;2024-02-26T12:40:20;8.80;99.90
33328;DHT22;19692;52.998;9.116;2024-02-26T12:42:46;8.70;99.90
33328;DHT22;19692;52.998;9.116;2024-02-26T12:45:13;8.60;99.90
33328;DHT22;19692;52.998;9.116;2024-02-26T12:47:45;8.50;99.90
33328;DHT22;19692;52.998;9.116;2024-02-26T12:50:16;8.40;99.90
33328;DHT22;19692;52.998;9.116;2024-02-26T12:52:47;8.50;99.90
33328;DHT22;19692;52.998;9.116;2024-02-26T12:55:16;8.50;99.90
33328;DHT22;19692;52.998;9.116;2024-02-26T12:57:44;8.50;99.90
33328;DHT22;19692;52.998;9.116;2024-02-26T13:00:16;8.70;99.90
33328;DHT22;19692;52.998;9.116;2024-02-26T13:02:47;8.60;99.90
33328;DHT22;19692;52.998;9.116;2024-02-26T13:05:15;8.60;99.90
33328;DHT22;19692;52.998;9.116;2024-02-26T13:07:42;8.60;99.90
33328;DHT22;19692;52.998;9.116;2024-02-26T13:10:09;8.50;99.90
33328;DHT22;19692;52.998;9.116;2024-02-26T13:12:41;8.50;99.90
33328;DHT22;19692;52.998;9.116;2024-02-26T13:15:20;8.50;99.90
33328;DHT22;19692;52.998;9.116;2024-02-26T13:17:47;8.50;99.90
33328;DHT22;19692;52.998;9.116;2024-02-26T13:20:29;8.50;99.90
33328;DHT22;19692;52.998;9.116;2024-02-26T13:23:05;8.50;99.90
33328;DHT22;19692;52.998;9.116;2024-02-26T13:25:37;8.50;99.90
33328;DHT22;19692;52.998;9.116;2024-02-26T13:28:08;8.40;99.90
33328;DHT22;19692;52.998;9.116;2024-02-26T13:30:37;8.30;99.90
33328;DHT22;19692;52.998;9.116;2024-02-26T13:33:12;8.30;99.90
33328;DHT22;19692;52.998;9.116;2024-02-26T13:35:39;8.20;99.90
33328;DHT22;19692;52.998;9.116;2024-02-26T13:38:05;8.20;99.90
33328;DHT22;19692;52.998;9.116;2024-02-26T13:40:33;8.10;99.90
33328;DHT22;19692;52.998;9.116;2024-02-26T13:43:00;8.00;99.90
33328;DHT22;19692;52.998;9.116;2024-02-26T13:45:25;8.10;99.90
33328;DHT22;19692;52.998;9.116;2024-02-26T13:47:51;8.10;99.90
33328;DHT22;19692;52.998;9.116;2024-02-26T13:50:17;8.10;99.90
33328;DHT22;19692;52.998;9.116;2024-02-26T13:52:47;8.00;99.90
33328;DHT22;19692;52.998;9.116;2024-02-26T13:55:13;8.00;99.90
33328;DHT22;19692;52.998;9.116;2024-02-26T13:57:41;7.90;99.90
33328;DHT22;19692;52.998;9.116;2024-02-26T14:00:08;7.80;99.90
33328;DHT22;19692;52.998;9.116;2024-02-26T14:02:35;7.80;99.90
33328;DHT22;19692;52.998;9.116;2024-02-26T14:05:02;7.70;99.90
33328;DHT22;19692;52.998;9.116;2024-02-26T14:07:29;7.80;99.90
33328;DHT22;19692;52.998;9.116;2024-02-26T14:09:58;7.80;99.90
33328;DHT22;19692;52.998;9.116;2024-02-26T14:12:25;7.70;99.90
33328;DHT22;19692;52.998;9.116;2024-02-26T14:14:50;7.80;99.90
33328;DHT22;19692;52.998;9.116;2024-02-26T14:17:18;7.80;99.90
33328;DHT22;19692;52.998;9.116;2024-02-26T14:19:44;7.70;99.90
33328;DHT22;19692;52.998;9.116;2024-02-26T14:22:14;7.80;99.90
33328;DHT22;19692;52.998;9.116;2024-02-26T14:24:41;7.80;99.90
33328;DHT22;19692;52.998;9.116;2024-02-26T14:27:12;7.70;99.90
33328;DHT22;19692;52.998;9.116;2024-02-26T14:29:43;7.70;99.90
33328;DHT22;19692;52.998;9.116;2024-02-26T14:32:09;7.60;99.90
33328;DHT22;19692;52.998;9.116;2024-02-26T14:34:35;7.50;99.90
33328;DHT22;19692;52.998;9.116;2024-02-26T14:37:01;7.40;99.90
33328;DHT22;19692;52.998;9.116;2024-02-26T14:39:27;7.40;99.90
33328;DHT22;19692;52.998;9.116;2024-02-26T14:41:54;7.50;99.90
33328;DHT22;19692;52.998;9.116;2024-02-26T14:44:20;7.40;99.90
33328;DHT22;19692;52.998;9.116;2024-02-26T14:46:46;7.40;99.90
33328;DHT22;19692;52.998;9.116;2024-02-26T14:49:12;7.40;99.90
33328;DHT22;19692;52.998;9.116;2024-02-26T14:51:38;7.30;99.90
33328;DHT22;19692;52.998;9.116;2024-02-26T14:54:04;7.20;99.90
33328;DHT22;19692;52.998;9.116;2024-02-26T14:56:30;7.20;99.90
33328;DHT22;19692;52.998;9.116;2024-02-26T14:58:56;7.20;99.90
33328;DHT22;19692;52.998;9.116;2024-02-26T15:01:22;7.10;99.90
33328;DHT22;19692;52.998;9.116;2024-02-26T15:03:49;7.20;99.90
33328;DHT22;19692;52.998;9.116;2024-02-26T15:06:14;7.10;99.90
33328;DHT22;19692;52.998;9.116;2024-02-26T15:08:40;7.10;99.90
33328;DHT22;19692;52.998;9.116;2024-02-26T15:11:06;7.10;99.90
33328;DHT22;19692;52.998;9.116;2024-02-26T15:13:33;7.10;99.90
33328;DHT22;19692;52.998;9.116;2024-02-26T15:15:59;7.10;99.90
33328;DHT22;19692;52.998;9.116;2024-02-26T15:18:25;7.10;99.90
33328;DHT22;19692;52.998;9.116;2024-02-26T15:20:51;7.00;99.90
33328;DHT22;19692;52.998;9.116;2024-02-26T15:23:17;7.00;99.90
33328;DHT22;19692;52.998;9.116;2024-02-26T15:25:43;6.90;99.90
33328;DHT22;19692;52.998;9.116;2024-02-26T15:28:09;6.90;99.90
33328;DHT22;19692;52.998;9.116;2024-02-26T15:30:36;6.90;99.90
33328;DHT22;19692;52.998;9.116;2024-02-26T15:33:02;6.90;99.90
33328;DHT22;19692;52.998;9.116;2024-02-26T15:35:28;6.80;99.90
33328;DHT22;19692;52.998;9.116;2024-02-26T15:37:54;6.70;99.90
33328;DHT22;19692;52.998;9.116;2024-02-26T15:40:20;6.70;99.90
33328;DHT22;19692;52.998;9.116;2024-02-26T15:42:47;6.70;99.90
33328;DHT22;19692;52.998;9.116;2024-02-26T15:45:12;6.60;99.90
33328;DHT22;19692;52.998;9.116;2024-02-26T15:47:38;6.60;99.90
33328;DHT22;19692;52.998;9.116;2024-02-26T15:50:06;6.60;99.90
33328;DHT22;19692;52.998;9.116;2024-02-26T15:52:32;6.50;99.90